sensor_id;sensor_type;location;lat;lon;timestamp;P1;durP1;ratioP1;P2;durP2;ratioP2
23474;SDS011;11910;52.086;21.066;2023-10-13T00:02:06;9.48;;;4.72;;
23474;SDS011;11910;52.086;21.066;2023-10-13T00:04:33;9.15;;;4.60;;
23474;SDS011;11910;52.086;21.066;2023-10-13T00:07:01;9.63;;;4.90;;
23474;SDS011;11910;52.086;21.066;2023-10-13T00:09:29;6.32;;;4.43;;
23474;SDS011;11910;52.086;21.066;2023-10-13T00:11:58;6.90;;;5.10;;
23474;SDS011;11910;52.086;21.066;2023-10-13T00:14:24;7.57;;;4.55;;
23474;SDS011;11910;52.086;21.066;2023-10-13T00:16:58;7.10;;;4.95;;
23474;SDS011;11910;52.086;21.066;2023-10-13T00:19:36;8.73;;;5.50;;
23474;SDS011;11910;52.086;21.066;2023-10-13T00:22:07;7.25;;;5.18;;
23474;SDS011;11910;52.086;21.066;2023-10-13T00:24:37;8.00;;;5.40;;
23474;SDS011;11910;52.086;21.066;2023-10-13T00:27:13;6.38;;;4.80;;
23474;SDS011;11910;52.086;21.066;2023-10-13T00:29:55;9.85;;;5.20;;
23474;SDS011;11910;52.086;21.066;2023-10-13T00:32:47;11.05;;;4.82;;
23474;SDS011;11910;52.086;21.066;2023-10-13T00:35:19;7.28;;;5.43;;
23474;SDS011;11910;52.086;21.066;2023-10-13T00:37:55;8.18;;;5.53;;
23474;SDS011;11910;52.086;21.066;2023-10-13T00:40:22;7.47;;;5.28;;
23474;SDS011;11910;52.086;21.066;2023-10-13T00:42:54;6.68;;;4.30;;
23474;SDS011;11910;52.086;21.066;2023-10-13T00:45:20;6.78;;;4.43;;
23474;SDS011;11910;52.086;21.066;2023-10-13T00:47:46;8.00;;;5.20;;
23474;SDS011;11910;52.086;21.066;2023-10-13T00:50:21;7.00;;;5.35;;
23474;SDS011;11910;52.086;21.066;2023-10-13T00:52:49;7.10;;;4.60;;
23474;SDS011;11910;52.086;21.066;2023-10-13T00:55:16;10.23;;;4.68;;
23474;SDS011;11910;52.086;21.066;2023-10-13T00:57:47;8.15;;;4.80;;
23474;SDS011;11910;52.086;21.066;2023-10-13T01:00:18;6.82;;;4.78;;
23474;SDS011;11910;52.086;21.066;2023-10-13T01:02:47;6.00;;;4.43;;
23474;SDS011;11910;52.086;21.066;2023-10-13T01:05:21;9.52;;;4.80;;
23474;SDS011;11910;52.086;21.066;2023-10-13T01:07:48;8.25;;;5.13;;
23474;SDS011;11910;52.086;21.066;2023-10-13T01:10:19;7.60;;;5.63;;
23474;SDS011;11910;52.086;21.066;2023-10-13T01:12:50;8.25;;;5.25;;
23474;SDS011;11910;52.086;21.066;2023-10-13T01:15:17;8.90;;;5.18;;
23474;SDS011;11910;52.086;21.066;2023-10-13T01:17:46;7.93;;;4.90;;
23474;SDS011;11910;52.086;21.066;2023-10-13T01:20:12;9.15;;;5.60;;
23474;SDS011;11910;52.086;21.066;2023-10-13T01:22:51;9.40;;;6.03;;
23474;SDS011;11910;52.086;21.066;2023-10-13T01:25:23;8.27;;;5.60;;
23474;SDS011;11910;52.086;21.066;2023-10-13T01:27:53;7.97;;;4.88;;
23474;SDS011;11910;52.086;21.066;2023-10-13T01:30:19;8.05;;;5.18;;
23474;SDS011;11910;52.086;21.066;2023-10-13T01:32:49;10.40;;;5.72;;
23474;SDS011;11910;52.086;21.066;2023-10-13T01:35:17;8.90;;;6.07;;
23474;SDS011;11910;52.086;21.066;2023-10-13T01:38:01;7.63;;;5.72;;
23474;SDS011;11910;52.086;21.066;2023-10-13T01:40:26;9.70;;;6.40;;
23474;SDS011;11910;52.086;21.066;2023-10-13T01:42:54;9.00;;;5.88;;
23474;SDS011;11910;52.086;21.066;2023-10-13T01:45:20;8.90;;;6.22;;
23474;SDS011;11910;52.086;21.066;2023-10-13T01:47:46;12.10;;;5.80;;
23474;SDS011;11910;52.086;21.066;2023-10-13T01:50:15;9.85;;;6.10;;
23474;SDS011;11910;52.086;21.066;2023-10-13T01:52:46;7.93;;;5.30;;
23474;SDS011;11910;52.086;21.066;2023-10-13T01:55:12;8.45;;;5.15;;
23474;SDS011;11910;52.086;21.066;2023-10-13T01:57:39;9.90;;;6.20;;
23474;SDS011;11910;52.086;21.066;2023-10-13T02:00:07;8.88;;;6.03;;
23474;SDS011;11910;52.086;21.066;2023-10-13T02:02:44;6.43;;;4.50;;
23474;SDS011;11910;52.086;21.066;2023-10-13T02:05:10;8.70;;;4.97;;
23474;SDS011;11910;52.086;21.066;2023-10-13T02:07:37;7.90;;;5.13;;
23474;SDS011;11910;52.086;21.066;2023-10-13T02:10:03;6.97;;;5.55;;
23474;SDS011;11910;52.086;21.066;2023-10-13T02:12:30;8.63;;;5.90;;
23474;SDS011;11910;52.086;21.066;2023-10-13T02:15:17;8.98;;;6.13;;
23474;SDS011;11910;52.086;21.066;2023-10-13T02:17:51;9.55;;;7.18;;
23474;SDS011;11910;52.086;21.066;2023-10-13T02:20:19;12.95;;;7.55;;
23474;SDS011;11910;52.086;21.066;2023-10-13T02:22:48;10.38;;;6.82;;
23474;SDS011;11910;52.086;21.066;2023-10-13T02:25:17;8.50;;;6.20;;
23474;SDS011;11910;52.086;21.066;2023-10-13T02:28:00;8.77;;;6.25;;
23474;SDS011;11910;52.086;21.066;2023-10-13T02:30:39;9.95;;;6.50;;
23474;SDS011;11910;52.086;21.066;2023-10-13T02:33:15;11.35;;;7.07;;
23474;SDS011;11910;52.086;21.066;2023-10-13T02:35:54;12.18;;;7.13;;
23474;SDS011;11910;52.086;21.066;2023-10-13T02:38:23;11.75;;;7.10;;
23474;SDS011;11910;52.086;21.066;2023-10-13T02:40:58;9.85;;;6.15;;
23474;SDS011;11910;52.086;21.066;2023-10-13T02:43:30;7.75;;;6.25;;
23474;SDS011;11910;52.086;21.066;2023-10-13T02:46:00;11.18;;;6.47;;
23474;SDS011;11910;52.086;21.066;2023-10-13T02:48:26;9.48;;;6.28;;
23474;SDS011;11910;52.086;21.066;2023-10-13T02:51:05;14.88;;;7.28;;
23474;SDS011;11910;52.086;21.066;2023-10-13T02:53:40;9.27;;;6.05;;
23474;SDS011;11910;52.086;21.066;2023-10-13T02:56:07;11.20;;;7.10;;
23474;SDS011;11910;52.086;21.066;2023-10-13T02:58:33;10.95;;;7.07;;
23474;SDS011;11910;52.086;21.066;2023-10-13T03:01:07;13.65;;;7.45;;
23474;SDS011;11910;52.086;21.066;2023-10-13T03:03:43;10.65;;;7.18;;
23474;SDS011;11910;52.086;21.066;2023-10-13T03:06:12;8.15;;;6.63;;
23474;SDS011;11910;52.086;21.066;2023-10-13T03:08:39;10.10;;;6.80;;
23474;SDS011;11910;52.086;21.066;2023-10-13T03:11:05;9.10;;;6.28;;
23474;SDS011;11910;52.086;21.066;2023-10-13T03:13:30;10.48;;;6.72;;
23474;SDS011;11910;52.086;21.066;2023-10-13T03:15:59;10.60;;;7.13;;
23474;SDS011;11910;52.086;21.066;2023-10-13T03:18:25;9.85;;;7.00;;
23474;SDS011;11910;52.086;21.066;2023-10-13T03:20:51;10.23;;;6.78;;
23474;SDS011;11910;52.086;21.066;2023-10-13T03:23:22;14.73;;;7.07;;
23474;SDS011;11910;52.086;21.066;2023-10-13T03:25:49;10.43;;;7.63;;
23474;SDS011;11910;52.086;21.066;2023-10-13T03:28:15;10.15;;;6.55;;
23474;SDS011;11910;52.086;21.066;2023-10-13T03:30:43;9.75;;;6.30;;
23474;SDS011;11910;52.086;21.066;2023-10-13T03:33:09;8.23;;;5.28;;
23474;SDS011;11910;52.086;21.066;2023-10-13T03:35:37;7.72;;;5.60;;
23474;SDS011;11910;52.086;21.066;2023-10-13T03:38:04;9.65;;;7.18;;
23474;SDS011;11910;52.086;21.066;2023-10-13T03:40:50;9.30;;;5.97;;
23474;SDS011;11910;52.086;21.066;2023-10-13T03:43:39;9.73;;;6.53;;
23474;SDS011;11910;52.086;21.066;2023-10-13T03:46:15;11.75;;;6.63;;
23474;SDS011;11910;52.086;21.066;2023-10-13T03:48:46;8.03;;;5.60;;
23474;SDS011;11910;52.086;21.066;2023-10-13T03:51:26;7.38;;;5.30;;
23474;SDS011;11910;52.086;21.066;2023-10-13T03:53:56;9.32;;;5.32;;
23474;SDS011;11910;52.086;21.066;2023-10-13T03:58:52;7.35;;;5.18;;
23474;SDS011;11910;52.086;21.066;2023-10-13T04:01:19;7.65;;;5.30;;
23474;SDS011;11910;52.086;21.066;2023-10-13T04:03:56;8.07;;;5.70;;
23474;SDS011;11910;52.086;21.066;2023-10-13T04:06:36;9.25;;;5.68;;
23474;SDS011;11910;52.086;21.066;2023-10-13T04:09:16;9.80;;;5.72;;
23474;SDS011;11910;52.086;21.066;2023-10-13T04:11:54;7.72;;;5.57;;
23474;SDS011;11910;52.086;21.066;2023-10-13T04:14:30;13.30;;;5.95;;
23474;SDS011;11910;52.086;21.066;2023-10-13T04:17:15;9.80;;;6.18;;
23474;SDS011;11910;52.086;21.066;2023-10-13T04:19:47;9.73;;;5.30;;
23474;SDS011;11910;52.086;21.066;2023-10-13T04:22:38;10.25;;;4.93;;
23474;SDS011;11910;52.086;21.066;2023-10-13T04:25:13;7.85;;;4.82;;
23474;SDS011;11910;52.086;21.066;2023-10-13T04:28:17;9.60;;;4.70;;
23474;SDS011;11910;52.086;21.066;2023-10-13T04:30:51;5.70;;;4.53;;
23474;SDS011;11910;52.086;21.066;2023-10-13T04:33:18;7.25;;;4.60;;
23474;SDS011;11910;52.086;21.066;2023-10-13T04:36:06;9.73;;;4.93;;
23474;SDS011;11910;52.086;21.066;2023-10-13T04:38:44;7.60;;;5.22;;
23474;SDS011;11910;52.086;21.066;2023-10-13T04:41:18;7.45;;;5.43;;
23474;SDS011;11910;52.086;21.066;2023-10-13T04:43:47;6.43;;;4.72;;
23474;SDS011;11910;52.086;21.066;2023-10-13T04:46:29;6.47;;;4.97;;
23474;SDS011;11910;52.086;21.066;2023-10-13T04:49:19;7.05;;;4.95;;
23474;SDS011;11910;52.086;21.066;2023-10-13T04:52:01;6.95;;;5.07;;
23474;SDS011;11910;52.086;21.066;2023-10-13T04:54:34;8.20;;;5.20;;
23474;SDS011;11910;52.086;21.066;2023-10-13T04:57:14;9.52;;;5.30;;
23474;SDS011;11910;52.086;21.066;2023-10-13T04:59:59;8.52;;;5.47;;
23474;SDS011;11910;52.086;21.066;2023-10-13T05:02:40;9.23;;;6.22;;
23474;SDS011;11910;52.086;21.066;2023-10-13T05:05:27;10.77;;;6.38;;
23474;SDS011;11910;52.086;21.066;2023-10-13T05:07:55;9.05;;;6.07;;
23474;SDS011;11910;52.086;21.066;2023-10-13T05:10:39;7.93;;;5.18;;
23474;SDS011;11910;52.086;21.066;2023-10-13T05:13:24;9.52;;;5.70;;
23474;SDS011;11910;52.086;21.066;2023-10-13T05:16:07;10.23;;;7.28;;
23474;SDS011;11910;52.086;21.066;2023-10-13T05:18:52;11.50;;;6.85;;
23474;SDS011;11910;52.086;21.066;2023-10-13T05:21:36;12.02;;;5.72;;
23474;SDS011;11910;52.086;21.066;2023-10-13T05:24:20;12.55;;;7.15;;
23474;SDS011;11910;52.086;21.066;2023-10-13T05:27:05;13.30;;;8.02;;
23474;SDS011;11910;52.086;21.066;2023-10-13T05:29:49;17.90;;;7.45;;
23474;SDS011;11910;52.086;21.066;2023-10-13T05:32:33;13.07;;;7.47;;
23474;SDS011;11910;52.086;21.066;2023-10-13T05:35:19;12.50;;;7.35;;
23474;SDS011;11910;52.086;21.066;2023-10-13T05:38:04;11.93;;;7.78;;
23474;SDS011;11910;52.086;21.066;2023-10-13T05:40:56;13.60;;;8.07;;
23474;SDS011;11910;52.086;21.066;2023-10-13T05:43:45;14.48;;;9.25;;
23474;SDS011;11910;52.086;21.066;2023-10-13T05:46:40;12.30;;;8.57;;
23474;SDS011;11910;52.086;21.066;2023-10-13T05:49:15;16.13;;;8.68;;
23474;SDS011;11910;52.086;21.066;2023-10-13T05:51:40;15.15;;;8.00;;
23474;SDS011;11910;52.086;21.066;2023-10-13T05:54:06;13.38;;;8.73;;
23474;SDS011;11910;52.086;21.066;2023-10-13T05:56:41;15.13;;;8.68;;
23474;SDS011;11910;52.086;21.066;2023-10-13T05:59:26;13.52;;;8.32;;
23474;SDS011;11910;52.086;21.066;2023-10-13T06:02:11;17.60;;;9.10;;
23474;SDS011;11910;52.086;21.066;2023-10-13T06:04:56;15.68;;;8.77;;
23474;SDS011;11910;52.086;21.066;2023-10-13T06:07:40;13.98;;;8.10;;
23474;SDS011;11910;52.086;21.066;2023-10-13T06:10:25;18.65;;;9.07;;
23474;SDS011;11910;52.086;21.066;2023-10-13T06:13:09;13.70;;;7.85;;
23474;SDS011;11910;52.086;21.066;2023-10-13T06:15:53;16.35;;;9.30;;
23474;SDS011;11910;52.086;21.066;2023-10-13T06:18:37;13.10;;;8.68;;
23474;SDS011;11910;52.086;21.066;2023-10-13T06:21:32;15.48;;;8.93;;
23474;SDS011;11910;52.086;21.066;2023-10-13T06:24:16;14.45;;;9.45;;
23474;SDS011;11910;52.086;21.066;2023-10-13T06:27:00;14.77;;;8.55;;
23474;SDS011;11910;52.086;21.066;2023-10-13T06:29:45;15.10;;;8.65;;
23474;SDS011;11910;52.086;21.066;2023-10-13T06:32:11;18.25;;;9.52;;
23474;SDS011;11910;52.086;21.066;2023-10-13T06:34:37;16.58;;;8.70;;
23474;SDS011;11910;52.086;21.066;2023-10-13T06:37:07;14.52;;;9.07;;
23474;SDS011;11910;52.086;21.066;2023-10-13T06:39:56;16.25;;;9.82;;
23474;SDS011;11910;52.086;21.066;2023-10-13T06:42:27;21.85;;;12.23;;
23474;SDS011;11910;52.086;21.066;2023-10-13T06:44:53;19.23;;;10.32;;
23474;SDS011;11910;52.086;21.066;2023-10-13T06:47:22;23.30;;;13.05;;
23474;SDS011;11910;52.086;21.066;2023-10-13T06:49:52;24.00;;;12.70;;
23474;SDS011;11910;52.086;21.066;2023-10-13T06:52:20;23.05;;;14.35;;
23474;SDS011;11910;52.086;21.066;2023-10-13T06:54:54;28.65;;;17.02;;
23474;SDS011;11910;52.086;21.066;2023-10-13T07:09:20;22.98;;;16.23;;
23474;SDS011;11910;52.086;21.066;2023-10-13T07:12:01;24.65;;;15.75;;
23474;SDS011;11910;52.086;21.066;2023-10-13T07:14:28;34.13;;;18.90;;
23474;SDS011;11910;52.086;21.066;2023-10-13T07:17:00;27.38;;;17.40;;
23474;SDS011;11910;52.086;21.066;2023-10-13T07:19:28;26.67;;;16.65;;
23474;SDS011;11910;52.086;21.066;2023-10-13T07:21:57;27.92;;;14.93;;
23474;SDS011;11910;52.086;21.066;2023-10-13T07:24:41;22.55;;;12.57;;
23474;SDS011;11910;52.086;21.066;2023-10-13T07:27:07;20.75;;;13.25;;
23474;SDS011;11910;52.086;21.066;2023-10-13T07:29:33;18.80;;;11.10;;
23474;SDS011;11910;52.086;21.066;2023-10-13T07:32:00;21.02;;;12.48;;
23474;SDS011;11910;52.086;21.066;2023-10-13T07:34:29;19.50;;;11.48;;
23474;SDS011;11910;52.086;21.066;2023-10-13T07:36:58;19.42;;;10.75;;
23474;SDS011;11910;52.086;21.066;2023-10-13T07:39:29;21.92;;;10.95;;
23474;SDS011;11910;52.086;21.066;2023-10-13T07:41:59;24.00;;;12.10;;
23474;SDS011;11910;52.086;21.066;2023-10-13T07:44:40;20.10;;;12.15;;
23474;SDS011;11910;52.086;21.066;2023-10-13T07:47:11;22.83;;;13.23;;
23474;SDS011;11910;52.086;21.066;2023-10-13T07:49:39;24.70;;;13.38;;
23474;SDS011;11910;52.086;21.066;2023-10-13T07:52:06;23.25;;;13.23;;
23474;SDS011;11910;52.086;21.066;2023-10-13T07:54:49;22.70;;;14.02;;
23474;SDS011;11910;52.086;21.066;2023-10-13T07:57:35;23.75;;;14.13;;
23474;SDS011;11910;52.086;21.066;2023-10-13T08:00:01;20.08;;;11.98;;
23474;SDS011;11910;52.086;21.066;2023-10-13T08:02:37;22.88;;;13.07;;
23474;SDS011;11910;52.086;21.066;2023-10-13T08:05:18;23.23;;;13.85;;
23474;SDS011;11910;52.086;21.066;2023-10-13T08:08:04;26.15;;;14.43;;
23474;SDS011;11910;52.086;21.066;2023-10-13T08:10:39;23.75;;;12.88;;
23474;SDS011;11910;52.086;21.066;2023-10-13T08:13:07;25.45;;;12.98;;
23474;SDS011;11910;52.086;21.066;2023-10-13T08:15:37;21.42;;;13.77;;
23474;SDS011;11910;52.086;21.066;2023-10-13T08:18:12;21.95;;;12.70;;
23474;SDS011;11910;52.086;21.066;2023-10-13T08:20:45;20.15;;;12.40;;
23474;SDS011;11910;52.086;21.066;2023-10-13T08:23:10;20.48;;;12.23;;
23474;SDS011;11910;52.086;21.066;2023-10-13T08:25:42;23.83;;;14.15;;
23474;SDS011;11910;52.086;21.066;2023-10-13T08:28:26;21.08;;;13.00;;
23474;SDS011;11910;52.086;21.066;2023-10-13T08:31:04;20.40;;;13.10;;
23474;SDS011;11910;52.086;21.066;2023-10-13T08:33:47;25.10;;;12.57;;
23474;SDS011;11910;52.086;21.066;2023-10-13T08:36:16;20.55;;;13.35;;
23474;SDS011;11910;52.086;21.066;2023-10-13T08:38:55;24.25;;;14.40;;
23474;SDS011;11910;52.086;21.066;2023-10-13T08:41:21;21.85;;;13.20;;
23474;SDS011;11910;52.086;21.066;2023-10-13T08:43:48;22.42;;;13.93;;
23474;SDS011;11910;52.086;21.066;2023-10-13T08:46:19;25.13;;;14.02;;
23474;SDS011;11910;52.086;21.066;2023-10-13T08:48:57;23.30;;;14.75;;
23474;SDS011;11910;52.086;21.066;2023-10-13T08:51:40;22.30;;;13.68;;
23474;SDS011;11910;52.086;21.066;2023-10-13T08:54:13;22.52;;;13.98;;
23474;SDS011;11910;52.086;21.066;2023-10-13T08:57:00;28.45;;;15.35;;
23474;SDS011;11910;52.086;21.066;2023-10-13T08:59:46;24.02;;;13.13;;
23474;SDS011;11910;52.086;21.066;2023-10-13T09:02:21;20.25;;;13.85;;
23474;SDS011;11910;52.086;21.066;2023-10-13T09:05:07;21.17;;;12.77;;
23474;SDS011;11910;52.086;21.066;2023-10-13T09:07:54;20.20;;;12.43;;
23474;SDS011;11910;52.086;21.066;2023-10-13T09:10:22;21.05;;;11.10;;
23474;SDS011;11910;52.086;21.066;2023-10-13T09:13:09;19.10;;;10.45;;
23474;SDS011;11910;52.086;21.066;2023-10-13T09:15:43;16.77;;;9.50;;
23474;SDS011;11910;52.086;21.066;2023-10-13T09:18:35;18.30;;;8.40;;
23474;SDS011;11910;52.086;21.066;2023-10-13T09:21:11;23.70;;;9.88;;
23474;SDS011;11910;52.086;21.066;2023-10-13T09:24:12;17.77;;;7.95;;
23474;SDS011;11910;52.086;21.066;2023-10-13T09:26:47;16.45;;;7.88;;
23474;SDS011;11910;52.086;21.066;2023-10-13T09:29:18;17.83;;;8.13;;
23474;SDS011;11910;52.086;21.066;2023-10-13T09:31:46;17.50;;;8.30;;
23474;SDS011;11910;52.086;21.066;2023-10-13T09:34:19;15.60;;;7.28;;
23474;SDS011;11910;52.086;21.066;2023-10-13T09:36:48;15.75;;;8.27;;
23474;SDS011;11910;52.086;21.066;2023-10-13T09:39:22;15.50;;;8.10;;
23474;SDS011;11910;52.086;21.066;2023-10-13T09:44:28;20.35;;;8.07;;
23474;SDS011;11910;52.086;21.066;2023-10-13T09:47:02;16.52;;;9.18;;
23474;SDS011;11910;52.086;21.066;2023-10-13T09:49:42;16.00;;;9.20;;
23474;SDS011;11910;52.086;21.066;2023-10-13T09:55:04;18.25;;;9.27;;
23474;SDS011;11910;52.086;21.066;2023-10-13T09:57:49;19.45;;;9.45;;
23474;SDS011;11910;52.086;21.066;2023-10-13T10:00:23;19.50;;;9.27;;
23474;SDS011;11910;52.086;21.066;2023-10-13T10:03:09;22.67;;;9.80;;
23474;SDS011;11910;52.086;21.066;2023-10-13T10:05:54;18.42;;;9.73;;
23474;SDS011;11910;52.086;21.066;2023-10-13T10:08:28;20.52;;;10.07;;
23474;SDS011;11910;52.086;21.066;2023-10-13T10:13:43;17.23;;;9.25;;
23474;SDS011;11910;52.086;21.066;2023-10-13T10:16:27;18.23;;;9.80;;
23474;SDS011;11910;52.086;21.066;2023-10-13T10:19:06;18.27;;;9.38;;
23474;SDS011;11910;52.086;21.066;2023-10-13T10:21:33;18.08;;;9.02;;
23474;SDS011;11910;52.086;21.066;2023-10-13T10:24:00;15.38;;;8.70;;
23474;SDS011;11910;52.086;21.066;2023-10-13T10:26:33;16.33;;;8.65;;
23474;SDS011;11910;52.086;21.066;2023-10-13T10:28:58;18.08;;;10.05;;
23474;SDS011;11910;52.086;21.066;2023-10-13T10:31:32;18.27;;;10.27;;
23474;SDS011;11910;52.086;21.066;2023-10-13T10:34:15;18.80;;;10.27;;
23474;SDS011;11910;52.086;21.066;2023-10-13T10:36:46;18.95;;;10.40;;
23474;SDS011;11910;52.086;21.066;2023-10-13T10:39:13;19.10;;;11.38;;
23474;SDS011;11910;52.086;21.066;2023-10-13T10:41:40;19.52;;;10.90;;
23474;SDS011;11910;52.086;21.066;2023-10-13T10:47:11;21.83;;;11.27;;
23474;SDS011;11910;52.086;21.066;2023-10-13T10:49:56;17.98;;;11.73;;
23474;SDS011;11910;52.086;21.066;2023-10-13T10:52:23;17.30;;;10.15;;
23474;SDS011;11910;52.086;21.066;2023-10-13T10:55:01;17.58;;;10.07;;
23474;SDS011;11910;52.086;21.066;2023-10-13T10:57:27;18.25;;;9.77;;
23474;SDS011;11910;52.086;21.066;2023-10-13T11:00:05;20.45;;;10.45;;
23474;SDS011;11910;52.086;21.066;2023-10-13T11:03:06;18.05;;;9.25;;
23474;SDS011;11910;52.086;21.066;2023-10-13T11:06:15;20.52;;;9.50;;
23474;SDS011;11910;52.086;21.066;2023-10-13T11:08:40;24.67;;;10.20;;
23474;SDS011;11910;52.086;21.066;2023-10-13T11:11:08;17.15;;;9.20;;
23474;SDS011;11910;52.086;21.066;2023-10-13T11:13:42;12.98;;;8.05;;
23474;SDS011;11910;52.086;21.066;2023-10-13T11:16:22;15.95;;;8.50;;
23474;SDS011;11910;52.086;21.066;2023-10-13T11:19:02;19.63;;;8.98;;
23474;SDS011;11910;52.086;21.066;2023-10-13T11:21:30;14.73;;;9.10;;
23474;SDS011;11910;52.086;21.066;2023-10-13T11:23:59;15.20;;;8.30;;
23474;SDS011;11910;52.086;21.066;2023-10-13T11:26:37;16.10;;;8.50;;
23474;SDS011;11910;52.086;21.066;2023-10-13T11:29:18;17.23;;;8.07;;
23474;SDS011;11910;52.086;21.066;2023-10-13T11:31:55;17.95;;;7.82;;
23474;SDS011;11910;52.086;21.066;2023-10-13T11:34:24;17.75;;;7.60;;
23474;SDS011;11910;52.086;21.066;2023-10-13T11:36:50;14.43;;;7.93;;
23474;SDS011;11910;52.086;21.066;2023-10-13T11:39:16;14.98;;;7.72;;
23474;SDS011;11910;52.086;21.066;2023-10-13T11:41:44;11.82;;;7.40;;
23474;SDS011;11910;52.086;21.066;2023-10-13T11:44:19;15.68;;;7.75;;
23474;SDS011;11910;52.086;21.066;2023-10-13T11:46:45;12.68;;;7.13;;
23474;SDS011;11910;52.086;21.066;2023-10-13T11:49:11;17.17;;;8.00;;
23474;SDS011;11910;52.086;21.066;2023-10-13T11:51:40;15.90;;;7.78;;
23474;SDS011;11910;52.086;21.066;2023-10-13T11:54:10;14.40;;;7.68;;
23474;SDS011;11910;52.086;21.066;2023-10-13T11:56:36;12.20;;;7.30;;
23474;SDS011;11910;52.086;21.066;2023-10-13T11:59:04;11.30;;;6.35;;
23474;SDS011;11910;52.086;21.066;2023-10-13T12:01:31;13.50;;;7.18;;
23474;SDS011;11910;52.086;21.066;2023-10-13T12:04:15;13.77;;;7.15;;
23474;SDS011;11910;52.086;21.066;2023-10-13T12:06:58;9.60;;;6.55;;
23474;SDS011;11910;52.086;21.066;2023-10-13T12:09:38;15.02;;;6.88;;
23474;SDS011;11910;52.086;21.066;2023-10-13T12:12:18;12.60;;;6.82;;
23474;SDS011;11910;52.086;21.066;2023-10-13T12:14:44;13.50;;;7.18;;
23474;SDS011;11910;52.086;21.066;2023-10-13T12:17:20;14.07;;;6.72;;
23474;SDS011;11910;52.086;21.066;2023-10-13T12:19:53;14.80;;;6.55;;
23474;SDS011;11910;52.086;21.066;2023-10-13T12:22:22;12.30;;;7.00;;
23474;SDS011;11910;52.086;21.066;2023-10-13T12:25:08;12.02;;;7.18;;
23474;SDS011;11910;52.086;21.066;2023-10-13T12:27:50;11.23;;;7.88;;
23474;SDS011;11910;52.086;21.066;2023-10-13T12:30:21;12.20;;;8.02;;
23474;SDS011;11910;52.086;21.066;2023-10-13T12:33:13;11.40;;;7.65;;
23474;SDS011;11910;52.086;21.066;2023-10-13T12:35:50;12.68;;;7.20;;
23474;SDS011;11910;52.086;21.066;2023-10-13T12:38:34;17.02;;;7.60;;
23474;SDS011;11910;52.086;21.066;2023-10-13T12:41:19;11.27;;;6.85;;
23474;SDS011;11910;52.086;21.066;2023-10-13T12:44:05;12.63;;;6.85;;
23474;SDS011;11910;52.086;21.066;2023-10-13T12:46:49;14.02;;;7.28;;
23474;SDS011;11910;52.086;21.066;2023-10-13T12:49:34;13.27;;;6.85;;
23474;SDS011;11910;52.086;21.066;2023-10-13T12:52:12;15.20;;;7.70;;
23474;SDS011;11910;52.086;21.066;2023-10-13T12:54:44;16.58;;;7.75;;
23474;SDS011;11910;52.086;21.066;2023-10-13T12:59:41;16.23;;;8.13;;
23474;SDS011;11910;52.086;21.066;2023-10-13T13:02:07;15.45;;;8.32;;
23474;SDS011;11910;52.086;21.066;2023-10-13T13:04:39;14.88;;;7.53;;
23474;SDS011;11910;52.086;21.066;2023-10-13T13:07:09;14.80;;;7.68;;
23474;SDS011;11910;52.086;21.066;2023-10-13T13:09:41;11.93;;;7.13;;
23474;SDS011;11910;52.086;21.066;2023-10-13T13:12:07;14.02;;;8.43;;
23474;SDS011;11910;52.086;21.066;2023-10-13T13:14:33;13.50;;;7.60;;
23474;SDS011;11910;52.086;21.066;2023-10-13T13:17:17;18.00;;;7.82;;
23474;SDS011;11910;52.086;21.066;2023-10-13T13:19:43;15.32;;;7.80;;
23474;SDS011;11910;52.086;21.066;2023-10-13T13:22:08;14.60;;;7.50;;
23474;SDS011;11910;52.086;21.066;2023-10-13T13:24:37;14.50;;;7.70;;
23474;SDS011;11910;52.086;21.066;2023-10-13T13:27:10;17.65;;;8.13;;
23474;SDS011;11910;52.086;21.066;2023-10-13T13:29:40;15.55;;;8.35;;
23474;SDS011;11910;52.086;21.066;2023-10-13T13:32:06;16.13;;;7.78;;
23474;SDS011;11910;52.086;21.066;2023-10-13T13:34:42;15.57;;;7.80;;
23474;SDS011;11910;52.086;21.066;2023-10-13T13:37:08;13.20;;;7.88;;
23474;SDS011;11910;52.086;21.066;2023-10-13T13:39:37;11.88;;;7.70;;
23474;SDS011;11910;52.086;21.066;2023-10-13T13:42:10;17.67;;;8.30;;
23474;SDS011;11910;52.086;21.066;2023-10-13T13:44:42;14.82;;;8.55;;
23474;SDS011;11910;52.086;21.066;2023-10-13T13:47:12;13.70;;;8.57;;
23474;SDS011;11910;52.086;21.066;2023-10-13T13:49:44;15.02;;;8.50;;
23474;SDS011;11910;52.086;21.066;2023-10-13T13:52:17;18.45;;;9.90;;
23474;SDS011;11910;52.086;21.066;2023-10-13T13:54:46;17.50;;;11.48;;
23474;SDS011;11910;52.086;21.066;2023-10-13T13:57:12;19.40;;;10.70;;
23474;SDS011;11910;52.086;21.066;2023-10-13T13:59:38;18.80;;;11.30;;
23474;SDS011;11910;52.086;21.066;2023-10-13T14:02:04;18.48;;;10.98;;
23474;SDS011;11910;52.086;21.066;2023-10-13T14:04:45;18.90;;;11.13;;
23474;SDS011;11910;52.086;21.066;2023-10-13T14:07:12;18.80;;;11.13;;
23474;SDS011;11910;52.086;21.066;2023-10-13T14:09:40;18.98;;;10.50;;
23474;SDS011;11910;52.086;21.066;2023-10-13T14:12:09;16.17;;;9.80;;
23474;SDS011;11910;52.086;21.066;2023-10-13T14:15:13;19.13;;;11.13;;
23474;SDS011;11910;52.086;21.066;2023-10-13T14:20:14;16.85;;;9.80;;
23474;SDS011;11910;52.086;21.066;2023-10-13T14:22:44;20.10;;;10.15;;
23474;SDS011;11910;52.086;21.066;2023-10-13T14:25:13;18.40;;;10.57;;
23474;SDS011;11910;52.086;21.066;2023-10-13T14:27:42;16.48;;;10.32;;
23474;SDS011;11910;52.086;21.066;2023-10-13T14:30:08;17.42;;;9.82;;
23474;SDS011;11910;52.086;21.066;2023-10-13T14:32:34;17.15;;;10.50;;
23474;SDS011;11910;52.086;21.066;2023-10-13T14:35:05;16.15;;;9.68;;
23474;SDS011;11910;52.086;21.066;2023-10-13T14:37:39;14.32;;;9.82;;
23474;SDS011;11910;52.086;21.066;2023-10-13T14:40:08;16.80;;;10.25;;
23474;SDS011;11910;52.086;21.066;2023-10-13T14:42:39;16.00;;;10.55;;
23474;SDS011;11910;52.086;21.066;2023-10-13T14:45:13;15.90;;;10.23;;
23474;SDS011;11910;52.086;21.066;2023-10-13T14:47:41;18.50;;;10.40;;
23474;SDS011;11910;52.086;21.066;2023-10-13T14:50:07;26.63;;;11.43;;
23474;SDS011;11910;52.086;21.066;2023-10-13T14:52:44;18.23;;;12.20;;
23474;SDS011;11910;52.086;21.066;2023-10-13T14:55:10;22.27;;;14.40;;
23474;SDS011;11910;52.086;21.066;2023-10-13T14:57:44;23.60;;;16.95;;
23474;SDS011;11910;52.086;21.066;2023-10-13T15:00:11;28.30;;;19.45;;
23474;SDS011;11910;52.086;21.066;2023-10-13T15:02:39;28.83;;;17.92;;
23474;SDS011;11910;52.086;21.066;2023-10-13T15:05:08;23.75;;;16.98;;
23474;SDS011;11910;52.086;21.066;2023-10-13T15:07:41;21.13;;;14.90;;
23474;SDS011;11910;52.086;21.066;2023-10-13T15:10:16;20.83;;;15.20;;
23474;SDS011;11910;52.086;21.066;2023-10-13T15:12:42;26.45;;;14.27;;
23474;SDS011;11910;52.086;21.066;2023-10-13T15:15:09;21.88;;;15.05;;
23474;SDS011;11910;52.086;21.066;2023-10-13T15:17:39;20.50;;;15.07;;
23474;SDS011;11910;52.086;21.066;2023-10-13T15:20:08;17.73;;;12.57;;
23474;SDS011;11910;52.086;21.066;2023-10-13T15:22:41;20.83;;;12.60;;
23474;SDS011;11910;52.086;21.066;2023-10-13T15:25:13;21.00;;;12.60;;
23474;SDS011;11910;52.086;21.066;2023-10-13T15:27:46;18.15;;;12.73;;
23474;SDS011;11910;52.086;21.066;2023-10-13T15:30:21;27.60;;;12.60;;
23474;SDS011;11910;52.086;21.066;2023-10-13T15:32:50;22.10;;;13.18;;